sensor_id;sensor_type;location;lat;lon;timestamp;pressure;altitude;pressure_sealevel;temperature;humidity
41800;BME280;27468;47.460;19.034;2023-04-26T00:01:24;99700.16;;;10.45;62.09
41800;BME280;27468;47.460;19.034;2023-04-26T00:03:51;99719.25;;;10.53;62.25
41800;BME280;27468;47.460;19.034;2023-04-26T00:06:17;99652.66;;;10.18;62.97
41800;BME280;27468;47.460;19.034;2023-04-26T00:08:42;99710.56;;;10.49;63.35
41800;BME280;27468;47.460;19.034;2023-04-26T00:11:08;99708.94;;;10.45;63.76
41800;BME280;27468;47.460;19.034;2023-04-26T00:13:33;99701.06;;;10.44;63.88
41800;BME280;27468;47.460;19.034;2023-04-26T00:15:59;99674.38;;;10.27;63.73
41800;BME280;27468;47.460;19.034;2023-04-26T00:18:24;99709.69;;;10.49;63.98
41800;BME280;27468;47.460;19.034;2023-04-26T00:20:50;99709.59;;;10.52;63.44
41800;BME280;27468;47.460;19.034;2023-04-26T00:23:15;99688.06;;;10.39;63.49
41800;BME280;27468;47.460;19.034;2023-04-26T00:25:41;99674.25;;;10.31;63.01
41800;BME280;27468;47.460;19.034;2023-04-26T00:28:07;99721.56;;;10.64;62.84
41800;BME280;27468;47.460;19.034;2023-04-26T00:30:34;99718.38;;;10.52;62.79
41800;BME280;27468;47.460;19.034;2023-04-26T00:33:02;99699.69;;;10.32;62.35
41800;BME280;27468;47.460;19.034;2023-04-26T00:35:27;99732.25;;;10.59;62.46
41800;BME280;27468;47.460;19.034;2023-04-26T00:37:52;99727.97;;;10.55;62.67
41800;BME280;27468;47.460;19.034;2023-04-26T00:40:18;99721.84;;;10.54;62.13
41800;BME280;27468;47.460;19.034;2023-04-26T00:42:44;99735.00;;;10.54;62.46
41800;BME280;27468;47.460;19.034;2023-04-26T00:45:10;99701.47;;;10.32;62.43
41800;BME280;27468;47.460;19.034;2023-04-26T00:47:35;99744.59;;;10.57;62.41
41800;BME280;27468;47.460;19.034;2023-04-26T00:50:01;99735.63;;;10.35;63.35
41800;BME280;27468;47.460;19.034;2023-04-26T00:52:27;99736.34;;;10.40;63.25
41800;BME280;27468;47.460;19.034;2023-04-26T00:54:54;99741.66;;;10.38;63.08
41800;BME280;27468;47.460;19.034;2023-04-26T00:57:21;99723.75;;;10.20;63.11
41800;BME280;27468;47.460;19.034;2023-04-26T00:59:46;99729.22;;;10.12;63.42
41800;BME280;27468;47.460;19.034;2023-04-26T01:02:12;99700.09;;;9.86;63.41
41800;BME280;27468;47.460;19.034;2023-04-26T01:04:37;99742.38;;;10.12;63.17
41800;BME280;27468;47.460;19.034;2023-04-26T01:07:06;99762.66;;;10.09;63.16
41800;BME280;27468;47.460;19.034;2023-04-26T01:09:32;99734.84;;;9.99;63.50
41800;BME280;27468;47.460;19.034;2023-04-26T01:11:58;99691.78;;;9.70;63.52
41800;BME280;27468;47.460;19.034;2023-04-26T01:14:24;99744.69;;;9.92;63.61
41800;BME280;27468;47.460;19.034;2023-04-26T01:16:51;99764.94;;;9.90;64.11
41800;BME280;27468;47.460;19.034;2023-04-26T01:19:16;99755.34;;;9.87;64.38
41800;BME280;27468;47.460;19.034;2023-04-26T01:21:42;99763.38;;;9.83;64.58
41800;BME280;27468;47.460;19.034;2023-04-26T01:24:12;99709.06;;;9.46;64.81
41800;BME280;27468;47.460;19.034;2023-04-26T01:26:38;99710.81;;;9.47;65.23
41800;BME280;27468;47.460;19.034;2023-04-26T01:29:16;99766.28;;;9.74;64.83
41800;BME280;27468;47.460;19.034;2023-04-26T01:31:42;99769.84;;;9.71;64.82
41800;BME280;27468;47.460;19.034;2023-04-26T01:34:08;99769.88;;;9.70;64.77
41800;BME280;27468;47.460;19.034;2023-04-26T01:36:33;99782.41;;;9.60;65.01
41800;BME280;27468;47.460;19.034;2023-04-26T01:38:59;99778.72;;;9.67;65.01
41800;BME280;27468;47.460;19.034;2023-04-26T01:41:24;99740.88;;;9.37;64.85
41800;BME280;27468;47.460;19.034;2023-04-26T01:43:50;99773.50;;;9.66;64.74
41800;BME280;27468;47.460;19.034;2023-04-26T01:46:15;99748.63;;;9.43;64.60
41800;BME280;27468;47.460;19.034;2023-04-26T01:48:40;99800.88;;;9.58;65.05
41800;BME280;27468;47.460;19.034;2023-04-26T01:51:06;99751.91;;;9.17;65.26
41800;BME280;27468;47.460;19.034;2023-04-26T01:53:32;99758.69;;;9.26;65.18
41800;BME280;27468;47.460;19.034;2023-04-26T01:56:00;99799.44;;;9.45;65.08
41800;BME280;27468;47.460;19.034;2023-04-26T01:58:30;99803.00;;;9.43;65.14
41800;BME280;27468;47.460;19.034;2023-04-26T02:00:56;99802.03;;;9.47;65.14
41800;BME280;27468;47.460;19.034;2023-04-26T02:03:22;99800.44;;;9.40;64.85
41800;BME280;27468;47.460;19.034;2023-04-26T02:05:47;99812.72;;;9.41;65.18
41800;BME280;27468;47.460;19.034;2023-04-26T02:08:13;99797.22;;;9.28;65.40
41800;BME280;27468;47.460;19.034;2023-04-26T02:10:38;99813.78;;;9.32;65.66
41800;BME280;27468;47.460;19.034;2023-04-26T02:13:07;99805.16;;;9.25;65.91
41800;BME280;27468;47.460;19.034;2023-04-26T02:15:32;99807.16;;;9.17;66.03
41800;BME280;27468;47.460;19.034;2023-04-26T02:17:58;99816.69;;;9.21;65.58
41800;BME280;27468;47.460;19.034;2023-04-26T02:20:23;99785.53;;;9.05;64.94
41800;BME280;27468;47.460;19.034;2023-04-26T02:22:49;99811.41;;;9.23;65.32
41800;BME280;27468;47.460;19.034;2023-04-26T02:25:14;99821.16;;;9.18;65.35
41800;BME280;27468;47.460;19.034;2023-04-26T02:27:40;99800.53;;;9.00;65.61
41800;BME280;27468;47.460;19.034;2023-04-26T02:30:06;99806.56;;;9.05;65.28
41800;BME280;27468;47.460;19.034;2023-04-26T02:32:32;99802.03;;;9.11;65.10
41800;BME280;27468;47.460;19.034;2023-04-26T02:34:57;99818.50;;;9.19;64.98
41800;BME280;27468;47.460;19.034;2023-04-26T02:37:23;99812.50;;;9.13;65.46
41800;BME280;27468;47.460;19.034;2023-04-26T02:39:49;99815.09;;;9.14;64.76
41800;BME280;27468;47.460;19.034;2023-04-26T02:42:15;99816.03;;;9.12;65.03
41800;BME280;27468;47.460;19.034;2023-04-26T02:44:41;99738.25;;;8.65;64.99
41800;BME280;27468;47.460;19.034;2023-04-26T02:47:07;99816.31;;;9.00;65.00
41800;BME280;27468;47.460;19.034;2023-04-26T02:49:32;99810.31;;;8.93;64.68
41800;BME280;27468;47.460;19.034;2023-04-26T02:51:58;99841.72;;;9.01;64.86
41800;BME280;27468;47.460;19.034;2023-04-26T02:54:23;99829.31;;;9.06;64.72
41800;BME280;27468;47.460;19.034;2023-04-26T02:56:49;99834.69;;;9.01;64.76
41800;BME280;27468;47.460;19.034;2023-04-26T02:59:14;99771.63;;;8.61;64.58
41800;BME280;27468;47.460;19.034;2023-04-26T03:01:40;99784.72;;;8.63;64.59
41800;BME280;27468;47.460;19.034;2023-04-26T03:04:05;99795.28;;;8.61;64.58
41800;BME280;27468;47.460;19.034;2023-04-26T03:06:31;99847.06;;;8.96;64.48
41800;BME280;27468;47.460;19.034;2023-04-26T03:08:57;99847.22;;;8.88;64.54
41800;BME280;27468;47.460;19.034;2023-04-26T03:11:22;99856.00;;;8.87;64.43
41800;BME280;27468;47.460;19.034;2023-04-26T03:13:48;99853.69;;;8.72;64.70
41800;BME280;27468;47.460;19.034;2023-04-26T03:16:13;99825.84;;;8.65;64.31
41800;BME280;27468;47.460;19.034;2023-04-26T03:18:38;99829.44;;;8.61;64.38
41800;BME280;27468;47.460;19.034;2023-04-26T03:21:04;99859.81;;;8.73;64.02
41800;BME280;27468;47.460;19.034;2023-04-26T03:23:30;99827.22;;;8.40;64.30
41800;BME280;27468;47.460;19.034;2023-04-26T03:25:55;99867.66;;;8.74;63.90
41800;BME280;27468;47.460;19.034;2023-04-26T03:28:21;99809.78;;;8.37;63.76
41800;BME280;27468;47.460;19.034;2023-04-26T03:30:46;99889.06;;;8.57;64.20
41800;BME280;27468;47.460;19.034;2023-04-26T03:33:14;99835.09;;;8.41;63.57
41800;BME280;27468;47.460;19.034;2023-04-26T03:35:40;99880.97;;;8.67;63.35
41800;BME280;27468;47.460;19.034;2023-04-26T03:38:05;99889.63;;;8.72;63.23
41800;BME280;27468;47.460;19.034;2023-04-26T03:40:30;99865.34;;;8.60;63.34
41800;BME280;27468;47.460;19.034;2023-04-26T03:42:56;99850.69;;;8.49;63.53
41800;BME280;27468;47.460;19.034;2023-04-26T03:45:21;99884.34;;;8.73;62.96
41800;BME280;27468;47.460;19.034;2023-04-26T03:47:47;99871.44;;;8.63;63.31
41800;BME280;27468;47.460;19.034;2023-04-26T03:50:12;99870.59;;;8.60;63.33
41800;BME280;27468;47.460;19.034;2023-04-26T03:52:37;99884.53;;;8.66;63.14
41800;BME280;27468;47.460;19.034;2023-04-26T03:55:03;99872.31;;;8.63;62.99
41800;BME280;27468;47.460;19.034;2023-04-26T03:57:29;99880.19;;;8.63;63.06
41800;BME280;27468;47.460;19.034;2023-04-26T03:59:54;99869.88;;;8.52;62.65
41800;BME280;27468;47.460;19.034;2023-04-26T04:02:20;99849.09;;;8.40;62.89
41800;BME280;27468;47.460;19.034;2023-04-26T04:04:45;99907.97;;;8.75;62.45
41800;BME280;27468;47.460;19.034;2023-04-26T04:07:11;99895.13;;;8.61;62.74
41800;BME280;27468;47.460;19.034;2023-04-26T04:09:36;99908.97;;;8.68;62.33
41800;BME280;27468;47.460;19.034;2023-04-26T04:12:02;99870.03;;;8.45;62.20
41800;BME280;27468;47.460;19.034;2023-04-26T04:14:27;99914.13;;;8.74;61.94
41800;BME280;27468;47.460;19.034;2023-04-26T04:16:53;99920.22;;;8.74;61.83
41800;BME280;27468;47.460;19.034;2023-04-26T04:19:18;99927.16;;;8.78;61.75
41800;BME280;27468;47.460;19.034;2023-04-26T04:21:44;99918.38;;;8.79;61.65
41800;BME280;27468;47.460;19.034;2023-04-26T04:24:09;99838.56;;;8.42;61.14
41800;BME280;27468;47.460;19.034;2023-04-26T04:26:35;99917.06;;;9.02;61.01
41800;BME280;27468;47.460;19.034;2023-04-26T04:29:02;99920.56;;;9.41;59.82
41800;BME280;27468;47.460;19.034;2023-04-26T04:31:34;99909.81;;;9.87;58.45
41800;BME280;27468;47.460;19.034;2023-04-26T04:34:00;99939.19;;;10.41;56.05
41800;BME280;27468;47.460;19.034;2023-04-26T04:36:25;99909.75;;;10.58;55.09
41800;BME280;27468;47.460;19.034;2023-04-26T04:38:50;99942.56;;;11.10;53.44
41800;BME280;27468;47.460;19.034;2023-04-26T04:41:17;99893.06;;;11.18;52.12
41800;BME280;27468;47.460;19.034;2023-04-26T04:43:44;99902.88;;;11.70;50.90
41800;BME280;27468;47.460;19.034;2023-04-26T04:46:10;99901.56;;;11.85;50.84
41800;BME280;27468;47.460;19.034;2023-04-26T04:48:36;99936.56;;;11.62;51.28
41800;BME280;27468;47.460;19.034;2023-04-26T04:51:03;99945.91;;;11.46;51.80
41800;BME280;27468;47.460;19.034;2023-04-26T04:53:28;99945.41;;;11.02;52.86
41800;BME280;27468;47.460;19.034;2023-04-26T04:55:54;99961.13;;;10.76;53.59
41800;BME280;27468;47.460;19.034;2023-04-26T04:58:21;99949.69;;;10.43;54.73
41800;BME280;27468;47.460;19.034;2023-04-26T05:00:47;99982.56;;;10.30;55.57
41800;BME280;27468;47.460;19.034;2023-04-26T05:03:13;99942.09;;;9.95;55.39
41800;BME280;27468;47.460;19.034;2023-04-26T05:05:39;99982.22;;;10.06;55.78
41800;BME280;27468;47.460;19.034;2023-04-26T05:08:05;99985.81;;;10.02;55.52
41800;BME280;27468;47.460;19.034;2023-04-26T05:10:33;99934.75;;;9.74;55.56
41800;BME280;27468;47.460;19.034;2023-04-26T05:12:59;99988.50;;;10.01;55.07
41800;BME280;27468;47.460;19.034;2023-04-26T05:15:25;99968.09;;;9.73;55.32
41800;BME280;27468;47.460;19.034;2023-04-26T05:17:50;99970.88;;;9.67;55.42
41800;BME280;27468;47.460;19.034;2023-04-26T05:20:16;99970.91;;;9.66;55.69
41800;BME280;27468;47.460;19.034;2023-04-26T05:22:42;99936.47;;;9.36;55.63
41800;BME280;27468;47.460;19.034;2023-04-26T05:25:08;99995.63;;;9.58;55.75
41800;BME280;27468;47.460;19.034;2023-04-26T05:27:34;99999.06;;;9.62;55.39
41800;BME280;27468;47.460;19.034;2023-04-26T05:30:01;100004.25;;;9.65;55.04
41800;BME280;27468;47.460;19.034;2023-04-26T05:32:27;99998.34;;;9.54;55.08
41800;BME280;27468;47.460;19.034;2023-04-26T05:34:52;99993.25;;;9.46;55.27
41800;BME280;27468;47.460;19.034;2023-04-26T05:37:18;99960.31;;;9.27;54.32
41800;BME280;27468;47.460;19.034;2023-04-26T05:39:43;100016.75;;;9.55;53.90
41800;BME280;27468;47.460;19.034;2023-04-26T05:42:09;99965.50;;;9.32;53.65
41800;BME280;27468;47.460;19.034;2023-04-26T05:44:34;100003.88;;;9.42;53.10
41800;BME280;27468;47.460;19.034;2023-04-26T05:47:00;100006.38;;;9.48;52.36
41800;BME280;27468;47.460;19.034;2023-04-26T05:49:25;100036.84;;;9.58;52.47
41800;BME280;27468;47.460;19.034;2023-04-26T05:51:51;99960.34;;;9.25;51.60
41800;BME280;27468;47.460;19.034;2023-04-26T05:54:16;100021.94;;;9.58;52.27
41800;BME280;27468;47.460;19.034;2023-04-26T05:56:42;99981.34;;;9.28;51.72
41800;BME280;27468;47.460;19.034;2023-04-26T05:59:07;100024.66;;;9.54;51.72
41800;BME280;27468;47.460;19.034;2023-04-26T06:01:33;100010.72;;;9.49;51.28
41800;BME280;27468;47.460;19.034;2023-04-26T06:03:58;99965.88;;;9.15;51.41
41800;BME280;27468;47.460;19.034;2023-04-26T06:06:24;99996.72;;;9.48;51.17
41800;BME280;27468;47.460;19.034;2023-04-26T06:08:50;100034.19;;;9.59;49.67
41800;BME280;27468;47.460;19.034;2023-04-26T06:11:15;100051.50;;;9.71;49.56
41800;BME280;27468;47.460;19.034;2023-04-26T06:13:41;100023.72;;;9.56;50.46
41800;BME280;27468;47.460;19.034;2023-04-26T06:16:06;100049.00;;;9.65;49.33
41800;BME280;27468;47.460;19.034;2023-04-26T06:18:32;100047.19;;;9.67;49.74
41800;BME280;27468;47.460;19.034;2023-04-26T06:20:57;100031.66;;;9.55;48.76
41800;BME280;27468;47.460;19.034;2023-04-26T06:23:23;100021.41;;;9.41;48.32
41800;BME280;27468;47.460;19.034;2023-04-26T06:25:48;100034.25;;;9.56;47.86
41800;BME280;27468;47.460;19.034;2023-04-26T06:28:13;100057.78;;;9.64;48.06
41800;BME280;27468;47.460;19.034;2023-04-26T06:30:39;100042.06;;;9.61;48.54
41800;BME280;27468;47.460;19.034;2023-04-26T06:33:04;100056.56;;;9.80;48.76
41800;BME280;27468;47.460;19.034;2023-04-26T06:35:30;100027.81;;;9.71;48.41
41800;BME280;27468;47.460;19.034;2023-04-26T06:37:55;100045.94;;;9.83;48.30
41800;BME280;27468;47.460;19.034;2023-04-26T06:40:21;100043.38;;;9.82;48.16
41800;BME280;27468;47.460;19.034;2023-04-26T06:42:46;100048.31;;;9.96;47.90
41800;BME280;27468;47.460;19.034;2023-04-26T06:45:12;100048.25;;;9.97;47.99
41800;BME280;27468;47.460;19.034;2023-04-26T06:47:38;100052.69;;;9.95;48.52
41800;BME280;27468;47.460;19.034;2023-04-26T06:50:04;100029.16;;;9.87;47.94
41800;BME280;27468;47.460;19.034;2023-04-26T06:52:29;100046.47;;;9.99;48.04
41800;BME280;27468;47.460;19.034;2023-04-26T06:54:55;100036.78;;;10.00;47.54
41800;BME280;27468;47.460;19.034;2023-04-26T06:57:21;100006.41;;;9.85;46.99
41800;BME280;27468;47.460;19.034;2023-04-26T06:59:46;100055.06;;;10.07;46.67
41800;BME280;27468;47.460;19.034;2023-04-26T07:02:12;100029.94;;;9.92;47.62
41800;BME280;27468;47.460;19.034;2023-04-26T07:04:37;100047.78;;;10.18;47.92
41800;BME280;27468;47.460;19.034;2023-04-26T07:07:03;100056.50;;;10.22;47.35
41800;BME280;27468;47.460;19.034;2023-04-26T07:09:28;100032.19;;;10.09;47.41
41800;BME280;27468;47.460;19.034;2023-04-26T07:11:53;100014.09;;;9.94;47.69
41800;BME280;27468;47.460;19.034;2023-04-26T07:14:19;100034.81;;;10.09;47.13
41800;BME280;27468;47.460;19.034;2023-04-26T07:16:44;100018.25;;;10.04;46.41
41800;BME280;27468;47.460;19.034;2023-04-26T07:19:10;100067.69;;;10.32;46.35
41800;BME280;27468;47.460;19.034;2023-04-26T07:21:36;100058.13;;;10.28;45.89
41800;BME280;27468;47.460;19.034;2023-04-26T07:24:01;100069.69;;;10.22;44.81
41800;BME280;27468;47.460;19.034;2023-04-26T07:26:27;100046.00;;;10.19;44.88
41800;BME280;27468;47.460;19.034;2023-04-26T07:28:52;100075.28;;;10.44;43.86
41800;BME280;27468;47.460;19.034;2023-04-26T07:31:18;100042.50;;;10.18;42.03
41800;BME280;27468;47.460;19.034;2023-04-26T07:33:44;100027.66;;;10.16;41.50
41800;BME280;27468;47.460;19.034;2023-04-26T07:36:10;100088.88;;;10.63;41.45
41800;BME280;27468;47.460;19.034;2023-04-26T07:38:35;100086.75;;;10.78;41.36
41800;BME280;27468;47.460;19.034;2023-04-26T07:41:00;100055.28;;;10.71;40.80
41800;BME280;27468;47.460;19.034;2023-04-26T07:43:26;100064.34;;;10.61;39.61
41800;BME280;27468;47.460;19.034;2023-04-26T07:45:52;100105.34;;;10.72;40.18
41800;BME280;27468;47.460;19.034;2023-04-26T07:48:18;100052.88;;;10.62;39.22
41800;BME280;27468;47.460;19.034;2023-04-26T07:50:43;100085.84;;;10.79;39.43
41800;BME280;27468;47.460;19.034;2023-04-26T07:53:09;100049.81;;;10.78;38.41
41800;BME280;27468;47.460;19.034;2023-04-26T07:55:35;100063.53;;;10.93;38.87
41800;BME280;27468;47.460;19.034;2023-04-26T07:58:01;100076.81;;;10.88;39.20
41800;BME280;27468;47.460;19.034;2023-04-26T08:00:27;100094.38;;;11.21;39.14
41800;BME280;27468;47.460;19.034;2023-04-26T08:02:53;100047.63;;;10.96;39.62
41800;BME280;27468;47.460;19.034;2023-04-26T08:05:18;100066.34;;;11.17;40.11
41800;BME280;27468;47.460;19.034;2023-04-26T08:07:44;100120.13;;;11.46;39.03
41800;BME280;27468;47.460;19.034;2023-04-26T08:10:10;100102.56;;;11.45;39.46
41800;BME280;27468;47.460;19.034;2023-04-26T08:12:36;100115.41;;;11.55;39.67
41800;BME280;27468;47.460;19.034;2023-04-26T08:15:03;100108.56;;;11.50;39.48
41800;BME280;27468;47.460;19.034;2023-04-26T08:17:29;100041.78;;;11.15;39.40
41800;BME280;27468;47.460;19.034;2023-04-26T08:19:56;100079.81;;;11.39;39.62
41800;BME280;27468;47.460;19.034;2023-04-26T08:22:22;100069.31;;;11.38;39.21
41800;BME280;27468;47.460;19.034;2023-04-26T08:24:49;100114.09;;;11.72;39.03
41800;BME280;27468;47.460;19.034;2023-04-26T08:27:15;100123.78;;;11.71;37.88
41800;BME280;27468;47.460;19.034;2023-04-26T08:29:41;100058.63;;;11.42;37.89
41800;BME280;27468;47.460;19.034;2023-04-26T08:32:07;100095.94;;;11.59;37.63
41800;BME280;27468;47.460;19.034;2023-04-26T08:34:32;100130.72;;;11.75;37.69
41800;BME280;27468;47.460;19.034;2023-04-26T08:36:58;100108.81;;;11.72;37.39
41800;BME280;27468;47.460;19.034;2023-04-26T08:39:23;100103.53;;;11.72;37.07
41800;BME280;27468;47.460;19.034;2023-04-26T08:41:54;100132.09;;;11.90;37.10
41800;BME280;27468;47.460;19.034;2023-04-26T08:44:23;100132.16;;;11.87;37.21
41800;BME280;27468;47.460;19.034;2023-04-26T08:52:10;100088.75;;;11.65;36.08
41800;BME280;27468;47.460;19.034;2023-04-26T08:54:36;100114.31;;;11.95;36.13
41800;BME280;27468;47.460;19.034;2023-04-26T08:57:02;100140.38;;;12.07;35.76
41800;BME280;27468;47.460;19.034;2023-04-26T08:59:32;100134.84;;;12.15;36.26
41800;BME280;27468;47.460;19.034;2023-04-26T09:01:59;100144.22;;;12.25;36.36
41800;BME280;27468;47.460;19.034;2023-04-26T09:04:27;100126.13;;;12.13;35.76
41800;BME280;27468;47.460;19.034;2023-04-26T09:06:54;100132.19;;;12.15;35.56
41800;BME280;27468;47.460;19.034;2023-04-26T09:09:24;100130.53;;;12.12;35.86
41800;BME280;27468;47.460;19.034;2023-04-26T09:11:55;100125.94;;;12.17;36.09
41800;BME280;27468;47.460;19.034;2023-04-26T09:14:22;100083.53;;;11.94;35.62
41800;BME280;27468;47.460;19.034;2023-04-26T09:16:48;100122.97;;;12.28;35.33
41800;BME280;27468;47.460;19.034;2023-04-26T09:19:13;100121.16;;;12.30;35.40
41800;BME280;27468;47.460;19.034;2023-04-26T09:21:43;100092.03;;;12.04;35.48
41800;BME280;27468;47.460;19.034;2023-04-26T09:24:10;100133.47;;;12.31;35.27
41800;BME280;27468;47.460;19.034;2023-04-26T09:26:36;100118.41;;;12.33;35.62
41800;BME280;27468;47.460;19.034;2023-04-26T09:29:11;100138.13;;;12.51;34.95
41800;BME280;27468;47.460;19.034;2023-04-26T09:31:44;100122.13;;;12.55;34.91
41800;BME280;27468;47.460;19.034;2023-04-26T09:34:12;100077.19;;;12.28;34.66
41800;BME280;27468;47.460;19.034;2023-04-26T09:36:56;100132.47;;;12.63;35.13
41800;BME280;27468;47.460;19.034;2023-04-26T09:39:35;100150.00;;;12.66;35.29
41800;BME280;27468;47.460;19.034;2023-04-26T09:42:10;100135.69;;;12.71;34.74
41800;BME280;27468;47.460;19.034;2023-04-26T09:44:36;100149.16;;;12.65;35.01
41800;BME280;27468;47.460;19.034;2023-04-26T09:47:06;100073.72;;;12.26;34.59
41800;BME280;27468;47.460;19.034;2023-04-26T09:49:49;100092.03;;;12.32;34.68
41800;BME280;27468;47.460;19.034;2023-04-26T09:52:16;100140.50;;;12.60;34.40
41800;BME280;27468;47.460;19.034;2023-04-26T09:54:47;100059.06;;;12.15;34.00
41800;BME280;27468;47.460;19.034;2023-04-26T09:57:15;100087.31;;;12.41;34.18
41800;BME280;27468;47.460;19.034;2023-04-26T10:00:05;100126.75;;;12.75;34.04
41800;BME280;27468;47.460;19.034;2023-04-26T10:02:33;100129.91;;;12.86;34.31
41800;BME280;27468;47.460;19.034;2023-04-26T10:04:58;100127.41;;;12.82;34.14
41800;BME280;27468;47.460;19.034;2023-04-26T10:07:26;100069.53;;;12.73;34.31
41800;BME280;27468;47.460;19.034;2023-04-26T10:09:52;100121.91;;;13.14;34.24
41800;BME280;27468;47.460;19.034;2023-04-26T10:12:18;100125.34;;;13.18;32.68
41800;BME280;27468;47.460;19.034;2023-04-26T10:14:47;100112.50;;;13.06;31.69
41800;BME280;27468;47.460;19.034;2023-04-26T10:17:13;100131.19;;;13.28;31.56
41800;BME280;27468;47.460;19.034;2023-04-26T10:19:41;100119.34;;;13.38;32.34
41800;BME280;27468;47.460;19.034;2023-04-26T10:22:22;100122.03;;;13.36;32.00
41800;BME280;27468;47.460;19.034;2023-04-26T10:24:48;100062.44;;;13.00;31.80
41800;BME280;27468;47.460;19.034;2023-04-26T10:27:14;100123.13;;;13.31;31.66
41800;BME280;27468;47.460;19.034;2023-04-26T10:32:21;100121.59;;;13.25;31.41
41800;BME280;27468;47.460;19.034;2023-04-26T10:35:12;100130.25;;;13.29;29.26
41800;BME280;27468;47.460;19.034;2023-04-26T10:45:35;100135.44;;;13.32;31.69
41800;BME280;27468;47.460;19.034;2023-04-26T10:53:24;100074.31;;;13.63;31.07
41800;BME280;27468;47.460;19.034;2023-04-26T10:55:49;100100.41;;;13.73;30.58
41800;BME280;27468;47.460;19.034;2023-04-26T10:58:26;100123.53;;;13.92;30.99
41800;BME280;27468;47.460;19.034;2023-04-26T11:01:09;100081.13;;;13.92;31.37
41800;BME280;27468;47.460;19.034;2023-04-26T11:03:39;100141.34;;;14.11;31.46
41800;BME280;27468;47.460;19.034;2023-04-26T11:06:05;100117.75;;;13.82;31.06
41800;BME280;27468;47.460;19.034;2023-04-26T11:08:32;100112.25;;;13.86;31.18
41800;BME280;27468;47.460;19.034;2023-04-26T11:13:29;100146.00;;;14.05;30.12
41800;BME280;27468;47.460;19.034;2023-04-26T11:16:14;100139.78;;;14.06;30.58
41800;BME280;27468;47.460;19.034;2023-04-26T11:18:45;100146.81;;;14.07;30.45
41800;BME280;27468;47.460;19.034;2023-04-26T11:21:11;100136.91;;;14.12;30.85
41800;BME280;27468;47.460;19.034;2023-04-26T11:23:41;100117.38;;;13.91;29.81
41800;BME280;27468;47.460;19.034;2023-04-26T11:26:07;100135.47;;;14.03;30.27
41800;BME280;27468;47.460;19.034;2023-04-26T11:28:38;100145.94;;;14.06;31.04
41800;BME280;27468;47.460;19.034;2023-04-26T11:31:05;100144.44;;;13.99;31.23
41800;BME280;27468;47.460;19.034;2023-04-26T11:33:31;100131.31;;;13.96;29.92
41800;BME280;27468;47.460;19.034;2023-04-26T11:35:58;100140.94;;;13.99;29.66
41800;BME280;27468;47.460;19.034;2023-04-26T11:38:26;100135.75;;;13.96;29.65
41800;BME280;27468;47.460;19.034;2023-04-26T11:41:01;100088.59;;;13.82;29.58
41800;BME280;27468;47.460;19.034;2023-04-26T11:43:37;100147.00;;;14.02;29.63
41800;BME280;27468;47.460;19.034;2023-04-26T11:46:04;100099.44;;;13.98;29.77
41800;BME280;27468;47.460;19.034;2023-04-26T11:48:31;100140.00;;;14.23;29.61
41800;BME280;27468;47.460;19.034;2023-04-26T11:50:58;100138.75;;;14.33;28.57
41800;BME280;27468;47.460;19.034;2023-04-26T11:53:24;100119.44;;;14.30;28.70
41800;BME280;27468;47.460;19.034;2023-04-26T11:55:50;100144.03;;;14.33;28.75
41800;BME280;27468;47.460;19.034;2023-04-26T11:58:16;100135.78;;;14.41;29.19
41800;BME280;27468;47.460;19.034;2023-04-26T12:01:08;100142.00;;;14.41;28.60
41800;BME280;27468;47.460;19.034;2023-04-26T12:03:34;100136.22;;;14.52;28.94
41800;BME280;27468;47.460;19.034;2023-04-26T12:06:02;100110.31;;;14.37;29.16
41800;BME280;27468;47.460;19.034;2023-04-26T12:08:28;100130.75;;;14.57;29.42
41800;BME280;27468;47.460;19.034;2023-04-26T12:10:58;100125.94;;;14.66;29.30
41800;BME280;27468;47.460;19.034;2023-04-26T12:13:24;100074.03;;;14.59;29.00
41800;BME280;27468;47.460;19.034;2023-04-26T12:15:49;100083.03;;;14.77;28.58
41800;BME280;27468;47.460;19.034;2023-04-26T12:18:17;100102.91;;;14.89;28.53
41800;BME280;27468;47.460;19.034;2023-04-26T12:20:43;100085.59;;;14.58;28.90
41800;BME280;27468;47.460;19.034;2023-04-26T12:23:15;100132.22;;;14.85;29.20
41800;BME280;27468;47.460;19.034;2023-04-26T12:25:50;100113.91;;;14.79;29.37
41800;BME280;27468;47.460;19.034;2023-04-26T12:28:16;100131.72;;;14.76;29.23
41800;BME280;27468;47.460;19.034;2023-04-26T12:30:42;100120.94;;;14.80;28.82
41800;BME280;27468;47.460;19.034;2023-04-26T12:33:07;100141.72;;;15.11;28.97
41800;BME280;27468;47.460;19.034;2023-04-26T12:35:33;100127.22;;;15.20;27.92
41800;BME280;27468;47.460;19.034;2023-04-26T12:37:59;100146.25;;;15.09;27.77
41800;BME280;27468;47.460;19.034;2023-04-26T12:40:28;100155.00;;;15.11;27.18
41800;BME280;27468;47.460;19.034;2023-04-26T12:42:54;100159.13;;;14.98;27.08
41800;BME280;27468;47.460;19.034;2023-04-26T12:45:21;100151.97;;;14.78;27.60
41800;BME280;27468;47.460;19.034;2023-04-26T12:47:48;100148.41;;;14.79;28.11
41800;BME280;27468;47.460;19.034;2023-04-26T12:50:14;100134.13;;;14.60;28.16
41800;BME280;27468;47.460;19.034;2023-04-26T12:52:41;100159.38;;;14.70;28.90
41800;BME280;27468;47.460;19.034;2023-04-26T12:55:08;100121.41;;;14.25;29.17
41800;BME280;27468;47.460;19.034;2023-04-26T12:57:35;100158.38;;;14.51;29.72
41800;BME280;27468;47.460;19.034;2023-04-26T13:00:02;100094.44;;;14.13;29.58
41800;BME280;27468;47.460;19.034;2023-04-26T13:02:28;100134.78;;;14.21;29.97
41800;BME280;27468;47.460;19.034;2023-04-26T13:04:54;100164.31;;;14.58;29.41
41800;BME280;27468;47.460;19.034;2023-04-26T13:07:20;100143.88;;;14.38;30.27
41800;BME280;27468;47.460;19.034;2023-04-26T13:09:46;100163.22;;;14.41;29.70